createdAt,value
2023-05-19T00:00:29.043Z,97063.19
2023-05-19T00:03:00.884Z,97060.72
2023-05-19T00:05:35.777Z,97050.88
2023-05-19T00:08:07.958Z,97061.75
2023-05-19T00:10:39.547Z,97066.06
2023-05-19T00:13:10.887Z,97059.91
2023-05-19T00:15:42.552Z,97057.44
2023-05-19T00:18:14.397Z,97054.94
2023-05-19T00:20:47.905Z,97063.16
2023-05-19T00:23:18.694Z,97051.66
2023-05-19T00:25:49.419Z,97061.50
2023-05-19T00:28:20.267Z,97054.50
2023-05-19T00:30:51.124Z,97057.38
2023-05-19T00:33:22.037Z,97063.09
2023-05-19T00:35:55.668Z,97060.81
2023-05-19T00:38:26.576Z,97056.47
2023-05-19T00:40:57.511Z,97055.66
2023-05-19T00:43:28.636Z,97060.16
2023-05-19T00:45:59.802Z,97051.53
2023-05-19T00:48:30.959Z,97051.72
2023-05-19T00:51:06.889Z,97042.25
2023-05-19T00:53:38.725Z,97043.22
2023-05-19T00:56:09.857Z,97037.66
2023-05-19T00:58:40.848Z,97052.28
2023-05-19T01:01:17.480Z,97057.63
2023-05-19T01:03:49.280Z,97055.78
2023-05-19T01:06:23.000Z,97045.28
2023-05-19T01:08:54.803Z,97046.31
2023-05-19T01:11:25.548Z,97045.47
2023-05-19T01:13:56.460Z,97050.19
2023-05-19T01:16:33.534Z,97046.69
2023-05-19T01:19:11.173Z,97037.81
2023-05-19T01:22:15.839Z,97049.34
2023-05-19T01:25:20.366Z,97047.72
2023-05-19T01:28:27.229Z,97045.22
2023-05-19T01:31:01.737Z,97045.22
2023-05-19T01:33:34.334Z,97040.91
2023-05-19T01:36:07.013Z,97043.56
2023-05-19T01:38:41.504Z,97037.78
2023-05-19T01:41:13.735Z,97042.72
2023-05-19T01:43:44.686Z,97046.44
2023-05-19T01:46:18.869Z,97041.47
2023-05-19T01:48:51.645Z,97039.81
2023-05-19T01:51:23.826Z,97038.97
2023-05-19T01:53:54.702Z,97043.50
2023-05-19T01:56:37.384Z,97041.59
2023-05-19T01:59:20.004Z,97043.69
2023-05-19T02:01:57.227Z,97050.88
2023-05-19T02:04:40.523Z,97048.59
2023-05-19T02:07:18.602Z,97045.28
2023-05-19T02:10:04.319Z,97048.97
2023-05-19T02:12:40.565Z,97036.75
2023-05-19T02:15:17.541Z,97056.53
2023-05-19T02:17:54.777Z,97053.22
2023-05-19T02:20:45.443Z,97061.22
2023-05-19T02:23:16.161Z,97066.56
2023-05-19T02:25:47.035Z,97067.41
2023-05-19T02:28:17.917Z,97064.75
2023-05-19T02:30:48.699Z,97069.06
2023-05-19T02:33:24.989Z,97082.41
2023-05-19T02:35:56.682Z,97087.13
2023-05-19T02:38:27.974Z,97082.59
2023-05-19T02:40:59.005Z,97088.13
2023-05-19T02:43:30.931Z,97098.44
2023-05-19T02:46:01.773Z,97103.75
2023-05-19T02:48:35.416Z,97107.91
2023-05-19T02:51:07.957Z,97108.91
2023-05-19T02:53:39.877Z,97113.41
2023-05-19T02:56:10.749Z,97105.59
2023-05-19T02:58:43.429Z,97109.94
2023-05-19T03:01:14.589Z,97115.06
2023-05-19T03:03:48.003Z,97115.91
2023-05-19T03:06:18.821Z,97122.91
2023-05-19T03:08:49.696Z,97125.38
2023-05-19T03:11:21.103Z,97127.03
2023-05-19T03:13:51.868Z,97129.34
2023-05-19T03:16:22.645Z,97133.03
2023-05-19T03:18:57.516Z,97136.34
2023-05-19T03:21:28.372Z,97132.66
2023-05-19T03:23:59.212Z,97140.47
2023-05-19T03:26:30.138Z,97134.94
2023-05-19T03:29:01.359Z,97138.28
2023-05-19T03:31:34.125Z,97142.59
2023-05-19T03:34:07.994Z,97147.75
2023-05-19T03:36:39.695Z,97143.22
2023-05-19T03:39:15.322Z,97141.38
2023-05-19T03:41:47.881Z,97143.88
2023-05-19T03:44:19.231Z,97149.84
2023-05-19T03:46:49.961Z,97145.16
2023-05-19T03:49:43.994Z,97144.75
2023-05-19T03:52:34.698Z,97149.72
2023-05-19T03:55:24.500Z,97143.81
2023-05-19T03:57:55.669Z,97148.59
2023-05-19T04:00:27.023Z,97148.03
2023-05-19T04:02:58.518Z,97149.13
2023-05-19T04:05:31.926Z,97155.72
2023-05-19T04:08:04.431Z,97150.66
2023-05-19T04:10:35.236Z,97156.25
2023-05-19T04:13:08.555Z,97157.13
2023-05-19T04:15:39.541Z,97158.22
2023-05-19T04:18:10.439Z,97157.47
2023-05-19T04:20:47.180Z,97156.88
2023-05-19T04:23:18.025Z,97165.13
2023-05-19T04:25:49.110Z,97157.56
2023-05-19T04:28:19.998Z,97157.00
2023-05-19T04:30:50.916Z,97167.56
2023-05-19T04:33:21.926Z,97164.31
2023-05-19T04:35:55.338Z,97160.88
2023-05-19T04:38:26.188Z,97157.59
2023-05-19T04:40:56.903Z,97164.66
2023-05-19T04:43:28.676Z,97162.03
2023-05-19T04:46:00.222Z,97170.91
2023-05-19T04:48:31.428Z,97167.47
2023-05-19T04:51:05.429Z,97174.94
2023-05-19T04:53:37.296Z,97177.69
2023-05-19T04:56:15.638Z,97166.28
2023-05-19T04:58:48.341Z,97160.16
2023-05-19T05:01:21.783Z,97174.72
2023-05-19T05:03:55.492Z,97165.69
2023-05-19T05:06:29.176Z,97177.91
2023-05-19T05:09:00.323Z,97182.00
2023-05-19T05:11:32.263Z,97176.41
2023-05-19T05:14:04.970Z,97182.78
2023-05-19T05:16:38.190Z,97189.13
2023-05-19T05:19:10.816Z,97184.50
2023-05-19T05:21:46.586Z,97188.09
2023-05-19T05:24:19.054Z,97188.38
2023-05-19T05:26:57.363Z,97180.31
2023-05-19T05:29:28.199Z,97184.16
2023-05-19T05:31:59.783Z,97172.59
2023-05-19T05:34:30.924Z,97175.91
2023-05-19T05:37:04.255Z,97169.53
2023-05-19T05:39:35.254Z,97186.44
2023-05-19T05:42:06.233Z,97181.91
2023-05-19T05:44:37.434Z,97184.72
2023-05-19T05:47:12.316Z,97188.47
2023-05-19T05:49:44.346Z,97187.53
2023-05-19T05:52:20.110Z,97185.97
2023-05-19T05:54:54.140Z,97188.19
2023-05-19T05:57:25.992Z,97189.97
2023-05-19T05:59:56.691Z,97194.41
2023-05-19T06:02:28.070Z,97201.13
2023-05-19T06:05:02.905Z,97201.84
2023-05-19T06:07:37.933Z,97206.19
2023-05-19T06:10:10.777Z,97208.03
2023-05-19T06:12:43.587Z,97204.50
2023-05-19T06:15:15.726Z,97198.88
2023-05-19T06:17:54.995Z,97200.78
2023-05-19T06:20:25.997Z,97196.75
2023-05-19T06:22:59.537Z,97195.22
2023-05-19T06:25:31.718Z,97192.34
2023-05-19T06:28:02.781Z,97200.91
2023-05-19T06:30:33.865Z,97200.00
2023-05-19T06:33:14.300Z,97196.50
2023-05-19T06:35:45.212Z,97198.31
2023-05-19T06:38:18.806Z,97200.66
2023-05-19T06:40:49.581Z,97200.78
2023-05-19T06:43:20.430Z,97205.75
2023-05-19T06:45:59.055Z,97207.72
2023-05-19T06:48:30.355Z,97203.09
2023-05-19T06:51:03.426Z,97214.78
2023-05-19T06:53:39.171Z,97204.63
2023-05-19T06:56:12.860Z,97214.44
2023-05-19T06:58:44.456Z,97213.66
2023-05-19T07:01:16.191Z,97217.00
2023-05-19T07:03:52.753Z,97215.16
2023-05-19T07:06:25.304Z,97214.03
2023-05-19T07:08:59.515Z,97210.22
2023-05-19T07:11:30.771Z,97210.44
2023-05-19T07:14:02.370Z,97209.78
2023-05-19T07:16:35.744Z,97210.81
2023-05-19T07:19:06.690Z,97211.34
2023-05-19T07:21:37.740Z,97200.53
2023-05-19T07:24:11.514Z,97215.66
2023-05-19T07:26:43.006Z,97201.09
2023-05-19T07:29:13.891Z,97200.78
2023-05-19T07:31:44.676Z,97198.66
2023-05-19T07:34:15.672Z,97204.81
2023-05-19T07:36:46.497Z,97205.19
2023-05-19T07:39:20.376Z,97202.25
2023-05-19T07:41:55.866Z,97202.81
2023-05-19T07:44:27.464Z,97194.13
2023-05-19T07:46:58.265Z,97191.41
2023-05-19T07:49:29.821Z,97206.19
2023-05-19T07:52:00.844Z,97203.75
2023-05-19T07:54:34.637Z,97210.13
2023-05-19T07:57:05.371Z,97206.91
2023-05-19T07:59:36.384Z,97199.56
2023-05-19T08:02:07.421Z,97205.31
2023-05-19T08:04:38.322Z,97203.38
2023-05-19T08:07:09.206Z,97204.50
2023-05-19T08:09:42.693Z,97201.97
2023-05-19T08:12:13.580Z,97211.19
2023-05-19T08:14:44.360Z,97212.28
2023-05-19T08:17:15.270Z,97207.97
2023-05-19T08:19:46.281Z,97214.56
2023-05-19T08:22:17.194Z,97221.97
2023-05-19T08:24:52.022Z,97220.88
2023-05-19T08:27:22.810Z,97226.00
2023-05-19T08:29:53.596Z,97221.56
2023-05-19T08:32:24.527Z,97232.41
2023-05-19T08:34:55.451Z,97224.19
2023-05-19T08:37:26.339Z,97208.03
2023-05-19T08:39:59.847Z,97227.88
2023-05-19T08:42:30.737Z,97228.13
2023-05-19T08:45:01.576Z,97227.31
2023-05-19T08:47:36.974Z,97217.44
2023-05-19T08:50:11.299Z,97220.16
2023-05-19T08:52:53.021Z,97213.34
2023-05-19T08:55:40.023Z,97213.69
2023-05-19T08:58:12.356Z,97214.28
2023-05-19T09:00:43.360Z,97229.63
2023-05-19T09:03:22.806Z,97220.97
2023-05-19T09:05:54.942Z,97213.16
2023-05-19T09:08:25.904Z,97212.91
2023-05-19T09:10:59.347Z,97221.69
2023-05-19T09:13:30.315Z,97220.28
2023-05-19T09:16:02.388Z,97210.78
2023-05-19T09:18:33.951Z,97209.44
2023-05-19T09:21:05.622Z,97214.59
2023-05-19T09:23:37.886Z,97204.47
2023-05-19T09:26:11.311Z,97214.31
2023-05-19T09:28:43.596Z,97211.34
2023-05-19T09:31:14.937Z,97210.25
2023-05-19T09:33:46.673Z,97209.44
2023-05-19T09:36:17.550Z,97200.13
2023-05-19T09:38:49.601Z,97206.41
2023-05-19T09:41:23.605Z,97198.75
2023-05-19T09:43:58.348Z,97201.44
2023-05-19T09:46:30.512Z,97196.22
2023-05-19T09:49:01.681Z,97199.72
2023-05-19T09:51:32.915Z,97207.34
2023-05-19T09:54:04.760Z,97196.41
2023-05-19T09:56:39.865Z,97187.59
2023-05-19T09:59:13.856Z,97186.97
2023-05-19T10:01:47.067Z,97183.13
2023-05-19T10:04:18.980Z,97181.13
2023-05-19T10:06:53.959Z,97175.75
2023-05-19T10:09:27.439Z,97180.47
2023-05-19T10:12:02.437Z,97179.28
2023-05-19T10:14:33.630Z,97176.47
2023-05-19T10:17:04.592Z,97164.25
2023-05-19T10:19:35.524Z,97167.94
2023-05-19T10:22:06.812Z,97161.50
2023-05-19T10:24:37.780Z,97165.94
2023-05-19T10:27:17.442Z,97172.97
2023-05-19T10:29:53.893Z,97173.00
2023-05-19T10:32:30.145Z,97166.97
2023-05-19T10:35:19.906Z,97165.59
2023-05-19T10:37:59.769Z,97167.97
2023-05-19T10:40:34.684Z,97159.44
2023-05-19T10:43:31.490Z,97164.28
2023-05-19T10:46:02.862Z,97156.66
2023-05-19T10:48:40.279Z,97154.50
2023-05-19T10:51:12.807Z,97156.06
2023-05-19T10:53:46.750Z,97156.84
2023-05-19T10:56:34.333Z,97154.38
2023-05-19T10:59:07.979Z,97150.59
2023-05-19T11:01:41.932Z,97154.44
2023-05-19T11:04:15.253Z,97157.97
2023-05-19T11:06:54.519Z,97145.13
2023-05-19T11:09:37.936Z,97150.59
2023-05-19T11:12:13.673Z,97137.63
2023-05-19T11:14:47.703Z,97143.78
2023-05-19T11:17:19.429Z,97137.34
2023-05-19T11:19:57.690Z,97153.88
2023-05-19T11:22:29.724Z,97144.44
2023-05-19T11:25:01.199Z,97139.81
2023-05-19T11:27:36.044Z,97139.31
2023-05-19T11:30:15.317Z,97134.97
2023-05-19T11:32:47.361Z,97133.63
2023-05-19T11:35:21.422Z,97124.88
2023-05-19T11:37:53.009Z,97136.06
2023-05-19T11:40:25.099Z,97139.00
2023-05-19T11:42:56.365Z,97131.09
2023-05-19T11:45:35.545Z,97131.34
2023-05-19T11:48:07.256Z,97129.97
2023-05-19T11:50:38.822Z,97125.03
2023-05-19T11:53:09.811Z,97110.28
2023-05-19T11:55:46.949Z,97111.06
2023-05-19T11:58:18.893Z,97114.88
2023-05-19T12:00:53.241Z,97118.38
2023-05-19T12:03:28.942Z,97112.38
2023-05-19T12:06:00.157Z,97114.50
2023-05-19T12:08:32.525Z,97110.66
2023-05-19T12:11:03.373Z,97106.84
2023-05-19T12:13:34.309Z,97097.91
2023-05-19T12:16:08.194Z,97093.59
2023-05-19T12:18:41.152Z,97094.09
2023-05-19T12:21:12.580Z,97093.28
2023-05-19T12:23:44.668Z,97099.81
2023-05-19T12:26:15.661Z,97100.41
2023-05-19T12:28:48.546Z,97096.06
2023-05-19T12:31:23.952Z,97099.09
2023-05-19T12:33:54.948Z,97097.72
2023-05-19T12:36:28.902Z,97098.28
2023-05-19T12:38:59.923Z,97096.41
2023-05-19T12:41:30.659Z,97101.28
2023-05-19T12:44:01.433Z,97103.16
2023-05-19T12:46:36.254Z,97110.53
2023-05-19T12:49:06.784Z,97099.91
2023-05-19T12:51:37.746Z,97098.56
2023-05-19T12:54:08.731Z,97091.75
2023-05-19T12:56:39.543Z,97098.56
2023-05-19T12:59:10.417Z,97096.66
2023-05-19T13:01:44.017Z,97096.34
2023-05-19T13:04:14.931Z,97095.56
2023-05-19T13:06:47.778Z,97096.34
2023-05-19T13:09:19.310Z,97093.38
2023-05-19T13:11:52.563Z,97095.81
2023-05-19T13:14:23.530Z,97093.63
2023-05-19T13:16:58.259Z,97089.03
2023-05-19T13:19:29.501Z,97082.75
2023-05-19T13:22:00.454Z,97087.94
2023-05-19T13:24:31.264Z,97101.53
2023-05-19T13:27:03.526Z,97102.09
2023-05-19T13:29:34.367Z,97096.91
2023-05-19T13:32:09.071Z,97097.97
2023-05-19T13:34:39.906Z,97097.19
2023-05-19T13:37:11.993Z,97108.88
2023-05-19T13:39:42.842Z,97119.50
2023-05-19T13:42:13.577Z,97128.75
2023-05-19T13:44:44.361Z,97167.31
2023-05-19T13:47:17.849Z,97185.47
2023-05-19T13:49:48.715Z,97213.16
2023-05-19T13:52:19.547Z,97202.69
2023-05-19T13:54:50.834Z,97223.50
2023-05-19T13:57:21.602Z,97221.75
2023-05-19T14:00:01.617Z,97232.66
2023-05-19T14:02:45.610Z,97221.53
2023-05-19T14:05:16.546Z,97222.28
2023-05-19T14:07:47.439Z,97241.44
2023-05-19T14:10:18.281Z,97249.53
2023-05-19T14:13:18.276Z,97269.94
2023-05-19T14:15:41.591Z,97286.16
2023-05-19T14:18:15.022Z,97296.94
2023-05-19T14:20:45.953Z,97282.66
2023-05-19T14:23:17.412Z,97302.75
2023-05-19T14:25:48.185Z,97294.66
2023-05-19T14:28:18.978Z,97304.31
2023-05-19T14:30:50.388Z,97304.19
2023-05-19T14:33:24.134Z,97312.09
2023-05-19T14:35:55.752Z,97317.72
2023-05-19T14:38:27.715Z,97319.81
2023-05-19T14:41:00.220Z,97311.31
2023-05-19T14:43:31.443Z,97314.00
2023-05-19T14:46:02.553Z,97318.56
2023-05-19T14:48:36.015Z,97328.06
2023-05-19T14:51:06.988Z,97339.22
2023-05-19T14:53:37.887Z,97337.16
2023-05-19T14:56:10.095Z,97334.66
2023-05-19T14:58:40.880Z,97334.88
2023-05-19T15:01:11.730Z,97338.78
2023-05-19T15:03:45.507Z,97341.88
2023-05-19T15:06:16.407Z,97347.03
2023-05-19T15:08:47.313Z,97339.59
2023-05-19T15:11:18.253Z,97336.91
2023-05-19T15:13:49.001Z,97329.66
2023-05-19T15:16:20.134Z,97342.28
2023-05-19T15:18:54.635Z,97346.63
2023-05-19T15:21:25.378Z,97325.94
2023-05-19T15:23:56.000Z,97321.41
2023-05-19T15:26:29.042Z,97326.78
2023-05-19T15:29:00.631Z,97331.31
2023-05-19T15:31:31.583Z,97330.50
2023-05-19T15:34:05.085Z,97322.44
2023-05-19T15:36:35.915Z,97310.84
2023-05-19T15:39:06.886Z,97286.25
2023-05-19T15:41:37.782Z,97271.38
2023-05-19T15:44:08.759Z,97263.50
2023-05-19T15:46:39.846Z,97263.94
2023-05-19T15:49:13.314Z,97283.81
2023-05-19T15:51:44.942Z,97281.94
2023-05-19T15:54:15.774Z,97284.88
2023-05-19T15:56:46.669Z,97281.56
2023-05-19T15:59:17.478Z,97266.06
2023-05-19T16:01:49.497Z,97274.94
2023-05-19T16:04:24.477Z,97261.50
2023-05-19T16:06:55.310Z,97279.28
2023-05-19T16:09:26.357Z,97274.31
2023-05-19T16:11:57.222Z,97267.31
2023-05-19T16:14:31.387Z,97269.38
2023-05-19T16:17:02.218Z,97272.25
2023-05-19T16:19:35.668Z,97261.09
2023-05-19T16:22:06.567Z,97259.47
2023-05-19T16:24:37.336Z,97256.56
2023-05-19T16:27:08.774Z,97271.66
2023-05-19T16:29:39.668Z,97269.78
2023-05-19T16:32:11.129Z,97265.03
2023-05-19T16:34:44.686Z,97260.06
2023-05-19T16:37:15.532Z,97267.91
2023-05-19T16:39:48.747Z,97271.44
2023-05-19T16:42:19.758Z,97254.06
2023-05-19T16:44:50.569Z,97266.66
2023-05-19T16:47:21.478Z,97261.50
2023-05-19T16:49:54.987Z,97261.50
2023-05-19T16:52:25.827Z,97271.63
2023-05-19T16:54:56.578Z,97274.31
2023-05-19T16:57:27.509Z,97278.25
2023-05-19T16:59:58.314Z,97278.47
2023-05-19T17:02:29.316Z,97283.22
2023-05-19T17:05:03.062Z,97287.97
2023-05-19T17:07:34.373Z,97293.16
2023-05-19T17:10:05.230Z,97298.72
2023-05-19T17:12:36.786Z,97294.41
2023-05-19T17:15:08.719Z,97297.88
2023-05-19T17:17:39.770Z,97298.94
2023-05-19T17:20:14.897Z,97303.69
2023-05-19T17:22:45.800Z,97297.69
2023-05-19T17:25:16.792Z,97308.63
2023-05-19T17:27:47.602Z,97311.75
2023-05-19T17:30:18.347Z,97316.50
2023-05-19T17:32:49.900Z,97308.84
2023-05-19T17:35:23.442Z,97308.25
2023-05-19T17:37:54.243Z,97305.31
2023-05-19T17:40:25.101Z,97303.03
2023-05-19T17:42:55.985Z,97305.31
2023-05-19T17:45:27.386Z,97311.94
2023-05-19T17:47:58.271Z,97306.13
2023-05-19T17:50:31.889Z,97296.63
2023-05-19T17:53:03.753Z,97301.59
2023-05-19T17:55:35.426Z,97294.16
2023-05-19T17:58:07.123Z,97296.63
2023-05-19T18:00:38.541Z,97300.13
2023-05-19T18:03:10.357Z,97304.66
2023-05-19T18:05:45.061Z,97304.44
2023-05-19T18:08:16.945Z,97313.94
2023-05-19T18:10:48.971Z,97315.16
2023-05-19T18:13:19.782Z,97311.03
2023-05-19T18:15:50.721Z,97315.97
2023-05-19T18:18:21.656Z,97313.50
2023-05-19T18:20:55.311Z,97314.53
2023-05-19T18:23:26.191Z,97310.59
2023-05-19T18:25:58.353Z,97311.00
2023-05-19T18:28:30.048Z,97310.59
2023-05-19T18:31:03.755Z,97305.59
2023-05-19T18:33:34.857Z,97305.00
2023-05-19T18:36:08.738Z,97316.97
2023-05-19T18:38:39.617Z,97318.59
2023-05-19T18:41:12.040Z,97320.00
2023-05-19T18:43:43.511Z,97327.00
2023-05-19T18:46:14.955Z,97334.81
2023-05-19T18:48:46.501Z,97328.81
2023-05-19T18:51:22.185Z,97327.94
2023-05-19T18:53:54.017Z,97325.84
2023-05-19T18:56:28.787Z,97328.25
2023-05-19T18:59:00.952Z,97337.09
2023-05-19T19:01:32.068Z,97337.47
2023-05-19T19:04:03.769Z,97346.94
2023-05-19T19:06:38.836Z,97355.41
2023-05-19T19:09:09.815Z,97351.03
2023-05-19T19:11:40.668Z,97361.75
2023-05-19T19:14:11.557Z,97361.75
2023-05-19T19:16:42.390Z,97366.13
2023-05-19T19:19:16.454Z,97368.78
2023-05-19T19:21:49.910Z,97368.78
2023-05-19T19:24:20.733Z,97361.75
2023-05-19T19:26:51.480Z,97360.28
2023-05-19T19:29:22.404Z,97365.84
2023-05-19T19:31:53.332Z,97373.25
2023-05-19T19:34:24.252Z,97377.34
2023-05-19T19:36:57.731Z,97374.25
2023-05-19T19:39:28.693Z,97366.78
2023-05-19T19:41:59.469Z,97369.22
2023-05-19T19:44:30.294Z,97370.44
2023-05-19T19:47:01.093Z,97363.81
2023-05-19T19:49:32.103Z,97374.91
2023-05-19T19:52:05.566Z,97368.50
2023-05-19T19:54:37.265Z,97383.66
2023-05-19T19:57:08.780Z,97370.22
2023-05-19T19:59:39.703Z,97367.09
2023-05-19T20:02:10.515Z,97385.19
2023-05-19T20:04:41.614Z,97381.88
2023-05-19T20:07:19.521Z,97378.56
2023-05-19T20:09:51.975Z,97373.19
2023-05-19T20:12:22.791Z,97369.91
2023-05-19T20:14:56.355Z,97382.25
2023-05-19T20:17:27.263Z,97384.09
2023-05-19T20:19:58.742Z,97385.13
2023-05-19T20:22:32.183Z,97380.97
2023-05-19T20:25:03.156Z,97378.69
2023-05-19T20:27:36.129Z,97385.06
2023-05-19T20:30:07.458Z,97385.25
2023-05-19T20:32:38.492Z,97389.97
2023-05-19T20:35:10.242Z,97383.97
2023-05-19T20:37:43.688Z,97386.63
2023-05-19T20:40:14.995Z,97392.22
2023-05-19T20:42:45.794Z,97391.56
2023-05-19T20:45:16.964Z,97391.56
2023-05-19T20:47:47.963Z,97394.59
2023-05-19T20:50:18.917Z,97393.97
2023-05-19T20:52:52.427Z,97387.34
2023-05-19T20:55:23.279Z,97386.06
2023-05-19T20:57:54.105Z,97377.41
2023-05-19T21:00:28.741Z,97388.47
2023-05-19T21:03:01.242Z,97392.34
2023-05-19T21:05:32.756Z,97384.69
2023-05-19T21:08:06.694Z,97379.09
2023-05-19T21:10:37.658Z,97373.28
2023-05-19T21:13:08.499Z,97386.19
2023-05-19T21:15:39.263Z,97379.56
2023-05-19T21:18:11.846Z,97390.19
2023-05-19T21:20:43.107Z,97399.59
2023-05-19T21:23:17.016Z,97393.94
2023-05-19T21:25:48.124Z,97385.47
2023-05-19T21:28:19.085Z,97390.38
2023-05-19T21:30:51.330Z,97396.09
2023-05-19T21:33:22.500Z,97397.47
2023-05-19T21:35:53.398Z,97391.50
2023-05-19T21:38:26.766Z,97388.16
2023-05-19T21:40:57.950Z,97393.06
2023-05-19T21:43:28.835Z,97385.97
2023-05-19T21:46:01.055Z,97388.91
2023-05-19T21:48:32.311Z,97390.91
2023-05-19T21:51:03.384Z,97403.66
2023-05-19T21:53:36.835Z,97409.34
2023-05-19T21:56:08.165Z,97408.72
2023-05-19T21:58:39.001Z,97408.06
2023-05-19T22:01:10.014Z,97408.44
2023-05-19T22:03:40.964Z,97411.47
2023-05-19T22:06:12.062Z,97412.50
2023-05-19T22:08:45.472Z,97410.00
2023-05-19T22:11:18.437Z,97411.19
2023-05-19T22:13:49.247Z,97411.56
2023-05-19T22:16:20.278Z,97395.88
2023-05-19T22:18:51.096Z,97383.53
2023-05-19T22:21:22.216Z,97385.56
2023-05-19T22:23:56.090Z,97381.25
2023-05-19T22:26:27.580Z,97384.09
2023-05-19T22:28:58.727Z,97386.94
2023-05-19T22:31:29.604Z,97382.81
2023-05-19T22:34:00.455Z,97381.16
2023-05-19T22:36:31.535Z,97374.31
2023-05-19T22:39:04.939Z,97379.00
2023-05-19T22:41:35.942Z,97371.34
2023-05-19T22:44:07.130Z,97368.22
2023-05-19T22:46:38.080Z,97369.44
2023-05-19T22:49:10.853Z,97356.44
2023-05-19T22:51:42.388Z,97369.13
2023-05-19T22:54:15.990Z,97365.81
2023-05-19T22:56:49.096Z,97367.00
2023-05-19T22:59:21.922Z,97367.38
2023-05-19T23:01:52.848Z,97369.22
2023-05-19T23:04:23.702Z,97356.22
2023-05-19T23:06:54.686Z,97359.06
2023-05-19T23:09:28.213Z,97354.91
2023-05-19T23:11:59.219Z,97351.63
2023-05-19T23:14:30.077Z,97348.47
2023-05-19T23:17:01.125Z,97348.84
2023-05-19T23:19:35.687Z,97346.50
2023-05-19T23:22:06.584Z,97344.41
2023-05-19T23:24:40.289Z,97346.41
2023-05-19T23:27:11.173Z,97350.44
2023-05-19T23:29:41.978Z,97345.47
2023-05-19T23:32:12.774Z,97342.16
2023-05-19T23:34:43.519Z,97346.00
2023-05-19T23:37:14.652Z,97351.50
2023-05-19T23:39:48.176Z,97352.69
2023-05-19T23:42:19.114Z,97346.91
2023-05-19T23:44:49.882Z,97346.06
2023-05-19T23:47:20.720Z,97341.91
2023-05-19T23:49:51.569Z,97342.22
2023-05-19T23:52:22.447Z,97346.94
2023-05-19T23:54:55.910Z,97354.47
2023-05-19T23:57:26.790Z,97333.66
2023-05-19T23:59:57.541Z,97348.34
